« Back
NWS Peachtree City, Ga » Text Product » CSG Terminal Aerodrome Forecast


Printer-friendly Version
Current Version              Previous Versions:   1  2  3  4  5  6  7  8  9  

Terminal Aerodrome Forecast

427
FTUS42 KFFC 281720
TAFCSG
TAF
KCSG 281720Z 2818/2918 VRB04KT P6SM SKC
     FM291600 17005KT P6SM BKN250=



USA.gov is the U.S. government's official web portal to all federal, state and local government web resources and services.